Time;durP1;ratioP1;P1;durP2;ratioP2;P2;SDS_P1;SDS_P2;PMS_P1;PMS_P2;Temp;Humidity;BMP_temperature;BMP_pressure;BME280_temperature;BME280_humidity;BME280_pressure;Samples;Min_cycle;Max_cycle;Signal;HPM_P1;HPM_P2
2022/10/16 00:00:36;;;;;;;10.68;2.30;;;12.50;99.90;;;;;;5071950;28;20118;-66
2022/10/16 00:03:02;;;;;;;16.30;3.40;;;12.50;99.90;;;;;;5071676;28;20045;-66
2022/10/16 00:05:28;;;;;;;4.03;2.20;;;12.50;99.90;;;;;;5071833;28;20037;-66
2022/10/16 00:07:54;;;;;;;7.43;2.45;;;12.40;99.90;;;;;;5072134;28;20032;-66
2022/10/16 00:10:20;;;;;;;5.53;2.67;;;12.40;99.90;;;;;;5071768;28;20131;-67
2022/10/16 00:12:45;;;;;;;7.00;2.28;;;12.50;99.90;;;;;;5071624;28;20040;-66
2022/10/16 00:15:11;;;;;;;5.97;2.65;;;12.50;99.90;;;;;;5071790;28;20044;-66
2022/10/16 00:17:36;;;;;;;5.75;1.88;;;12.40;99.90;;;;;;5071757;28;20047;-66
2022/10/16 00:20:03;;;;;;;6.22;2.45;;;12.40;99.90;;;;;;5071606;28;20070;-66
2022/10/16 00:22:28;;;;;;;8.38;2.83;;;12.50;99.90;;;;;;5071262;28;20033;-66
2022/10/16 00:24:54;;;;;;;6.57;2.13;;;12.40;99.90;;;;;;5071855;28;20044;-66
2022/10/16 00:27:19;;;;;;;7.63;2.28;;;12.40;99.90;;;;;;5071583;28;20040;-66
2022/10/16 00:29:45;;;;;;;12.13;2.38;;;12.50;99.90;;;;;;5071722;28;20078;-66
2022/10/16 00:32:10;;;;;;;8.32;2.58;;;12.50;99.90;;;;;;5071497;28;20405;-66
2022/10/16 00:34:36;;;;;;;15.13;3.90;;;12.60;99.90;;;;;;5071360;28;20566;-66
2022/10/16 00:37:02;;;;;;;11.48;2.35;;;12.50;99.90;;;;;;5071830;28;20035;-66
2022/10/16 00:39:28;;;;;;;16.00;2.55;;;12.50;99.90;;;;;;5071614;28;20045;-66
2022/10/16 00:41:53;;;;;;;4.95;1.73;;;12.40;99.90;;;;;;5071501;28;20041;-66
2022/10/16 00:44:45;;;;;;;7.75;2.60;;;12.40;99.90;;;;;;5071258;28;20048;-66
2022/10/16 00:47:17;;;;;;;9.02;2.22;;;12.40;99.90;;;;;;5071361;28;20044;-66
2022/10/16 00:49:43;;;;;;;12.10;2.50;;;12.50;99.90;;;;;;5071660;28;20040;-66
2022/10/16 00:52:10;;;;;;;5.50;2.15;;;12.60;99.90;;;;;;5071403;28;20043;-66
2022/10/16 00:54:36;;;;;;;5.53;1.77;;;12.50;99.90;;;;;;5071341;28;20080;-66
2022/10/16 00:57:04;;;;;;;7.43;2.75;;;12.50;99.90;;;;;;5071389;28;20044;-66
2022/10/16 00:59:43;;;;;;;5.93;1.95;;;12.60;99.90;;;;;;5071376;28;20051;-66
2022/10/16 01:02:12;;;;;;;4.85;1.92;;;12.50;99.90;;;;;;5071459;28;20039;-66
2022/10/16 01:04:56;;;;;;;10.13;2.85;;;12.50;99.90;;;;;;5071255;28;20436;-66
2022/10/16 01:07:45;;;;;;;3.88;2.03;;;12.60;99.90;;;;;;5071366;28;20029;-66
2022/10/16 01:10:27;;;;;;;7.20;1.90;;;12.60;99.90;;;;;;5071474;28;20076;-66
2022/10/16 01:12:57;;;;;;;5.13;2.20;;;12.50;99.90;;;;;;5071166;28;20070;-66
2022/10/16 01:15:58;;;;;;;8.52;1.85;;;12.50;99.90;;;;;;5071353;28;20071;-66
2022/10/16 01:18:37;;;;;;;6.10;2.00;;;12.50;99.90;;;;;;5071426;28;20040;-66
2022/10/16 01:21:11;;;;;;;3.00;1.60;;;12.60;99.90;;;;;;5071111;28;20037;-66
2022/10/16 01:23:49;;;;;;;4.30;1.73;;;12.40;99.90;;;;;;5070997;28;20044;-66
2022/10/16 01:26:43;;;;;;;5.30;1.98;;;12.50;99.90;;;;;;5071260;28;20383;-66
2022/10/16 01:29:28;;;;;;;4.65;1.80;;;12.50;99.90;;;;;;5071122;28;20044;-66
2022/10/16 01:31:59;;;;;;;6.10;2.05;;;12.60;99.90;;;;;;5071142;28;20036;-66
2022/10/16 01:34:50;;;;;;;4.40;1.70;;;12.60;99.90;;;;;;5071497;28;20037;-66
2022/10/16 01:37:24;;;;;;;9.18;2.67;;;12.50;99.90;;;;;;5063446;28;20500;-66
2022/10/16 01:39:54;;;;;;;6.35;2.10;;;12.60;99.90;;;;;;5074779;28;20051;-66
2022/10/16 01:42:34;;;;;;;5.05;2.15;;;12.50;99.90;;;;;;5074364;28;20123;-66
2022/10/16 01:45:01;;;;;;;5.88;1.67;;;12.50;99.90;;;;;;5074554;28;20119;-66
2022/10/16 01:47:29;;;;;;;4.88;1.90;;;12.60;99.90;;;;;;5074438;28;20075;-66
2022/10/16 01:49:57;;;;;;;4.60;2.22;;;12.60;99.90;;;;;;5074635;28;20115;-66
2022/10/16 01:52:26;;;;;;;7.28;2.50;;;12.60;99.90;;;;;;5074207;28;20033;-66
2022/10/16 01:54:56;;;;;;;5.38;1.90;;;12.60;99.90;;;;;;5074419;28;20130;-66
2022/10/16 01:57:23;;;;;;;5.70;2.15;;;12.60;99.90;;;;;;5074284;28;20505;-66
2022/10/16 01:59:54;;;;;;;6.45;2.20;;;12.50;99.90;;;;;;5074183;28;20048;-66
2022/10/16 02:02:21;;;;;;;5.35;2.10;;;12.50;99.90;;;;;;5074205;28;20044;-66
2022/10/16 02:04:52;;;;;;;6.43;1.85;;;12.50;99.90;;;;;;5074339;28;20033;-66
2022/10/16 02:07:18;;;;;;;7.28;2.17;;;12.60;99.90;;;;;;5074267;28;20068;-66
2022/10/16 02:09:44;;;;;;;5.70;1.75;;;12.60;99.90;;;;;;5074069;28;20079;-66
2022/10/16 02:12:22;;;;;;;9.30;3.00;;;12.50;99.90;;;;;;5074012;28;20044;-66
2022/10/16 02:14:47;;;;;;;3.85;1.80;;;12.60;99.90;;;;;;5074411;28;20044;-66
2022/10/16 02:17:16;;;;;;;7.80;2.00;;;12.60;99.90;;;;;;5074232;28;20056;-66
2022/10/16 02:19:43;;;;;;;6.13;1.67;;;12.60;99.90;;;;;;5073871;28;20422;-66
2022/10/16 02:22:14;;;;;;;6.10;1.83;;;12.50;99.90;;;;;;5073590;28;20051;-66
2022/10/16 02:25:23;;;;;;;6.55;1.80;;;12.60;99.90;;;;;;5055969;28;20413;-66
2022/10/16 02:27:55;;;;;;;5.53;1.67;;;12.60;99.90;;;;;;5055920;28;20044;-66
2022/10/16 02:30:42;;;;;;;4.80;2.10;;;12.60;99.90;;;;;;5073676;28;20052;-66
2022/10/16 02:33:13;;;;;;;4.20;1.45;;;12.50;99.90;;;;;;5073351;28;20048;-66
2022/10/16 02:35:39;;;;;;;5.97;1.85;;;12.70;99.90;;;;;;5055744;28;20052;-66
2022/10/16 02:38:06;;;;;;;7.63;1.67;;;12.60;99.90;;;;;;5073719;28;20115;-66
2022/10/16 02:40:32;;;;;;;4.40;1.67;;;12.70;99.90;;;;;;5073292;28;20496;-66
2022/10/16 02:42:57;;;;;;;4.60;1.45;;;12.70;99.90;;;;;;5073360;28;20127;-66
2022/10/16 02:45:23;;;;;;;4.90;2.05;;;12.60;99.90;;;;;;5073153;28;20036;-66
2022/10/16 02:47:49;;;;;;;4.47;1.83;;;12.70;99.90;;;;;;5054674;28;20489;-66
2022/10/16 02:50:16;;;;;;;7.35;2.10;;;12.70;99.90;;;;;;5073450;28;20052;-66
2022/10/16 02:52:42;;;;;;;3.58;1.63;;;12.60;99.90;;;;;;5073149;28;20071;-66
2022/10/16 02:55:08;;;;;;;8.82;1.95;;;12.60;99.90;;;;;;5073178;28;20068;-66
2022/10/16 02:57:33;;;;;;;5.13;1.60;;;12.60;99.90;;;;;;5073225;28;20079;-66
2022/10/16 02:59:59;;;;;;;5.55;2.30;;;12.80;99.90;;;;;;5072975;28;20039;-66
2022/10/16 03:02:24;;;;;;;4.90;1.85;;;12.70;99.90;;;;;;5072636;28;20120;-66
2022/10/16 03:04:50;;;;;;;8.38;1.77;;;12.80;99.90;;;;;;5073223;28;20111;-66
2022/10/16 03:07:16;;;;;;;4.15;1.60;;;12.70;99.90;;;;;;5072905;28;20035;-66
2022/10/16 03:09:41;;;;;;;4.95;2.15;;;12.80;99.90;;;;;;5073038;28;20032;-66
2022/10/16 03:12:07;;;;;;;4.80;2.60;;;12.80;99.90;;;;;;5072762;28;20044;-66
2022/10/16 03:14:33;;;;;;;5.47;1.98;;;12.80;99.90;;;;;;5072623;28;20506;-66
2022/10/16 03:16:58;;;;;;;2.67;1.77;;;13.00;99.90;;;;;;5072731;28;20037;-66
2022/10/16 03:19:24;;;;;;;8.10;2.25;;;12.80;99.90;;;;;;5072931;28;20093;-67
2022/10/16 03:21:49;;;;;;;5.13;1.92;;;12.90;99.90;;;;;;5072560;28;20052;-66
2022/10/16 03:24:15;;;;;;;5.88;1.88;;;12.80;99.90;;;;;;5072477;28;20032;-66
2022/10/16 03:26:41;;;;;;;4.82;1.83;;;12.90;99.90;;;;;;5054699;28;20108;-66
2022/10/16 03:29:07;;;;;;;6.43;1.70;;;12.80;99.90;;;;;;5072584;28;20032;-66
2022/10/16 03:31:32;;;;;;;5.35;1.92;;;12.90;99.90;;;;;;5072373;28;20070;-66
2022/10/16 03:33:58;;;;;;;4.70;2.05;;;13.00;99.90;;;;;;5072370;28;20067;-66
2022/10/16 03:39:02;;;;;;;8.48;2.05;;;12.80;99.90;;;;;;5041266;28;20137;-65
2022/10/16 03:41:28;;;;;;;6.30;2.20;;;12.90;99.90;;;;;;5009566;28;20550;-67
2022/10/16 03:43:53;;;;;;;4.78;2.03;;;12.80;99.90;;;;;;5009194;28;20038;-67
2022/10/16 03:46:19;;;;;;;21.92;3.28;;;12.80;99.90;;;;;;5009344;28;20092;-67
2022/10/16 03:48:44;;;;;;;6.05;2.30;;;12.90;99.90;;;;;;5009589;28;20042;-67
2022/10/16 03:51:10;;;;;;;6.00;2.47;;;12.70;99.90;;;;;;5009429;28;20038;-67
2022/10/16 03:53:35;;;;;;;4.25;1.73;;;12.90;99.90;;;;;;5009035;28;20042;-67
2022/10/16 03:56:01;;;;;;;3.50;2.28;;;12.70;99.90;;;;;;5009291;28;20113;-67
2022/10/16 03:58:27;;;;;;;3.35;2.08;;;12.80;99.90;;;;;;5009147;28;20480;-67
2022/10/16 04:00:52;;;;;;;4.53;2.28;;;12.80;99.90;;;;;;5009054;28;20572;-67
2022/10/16 04:03:18;;;;;;;7.78;2.03;;;12.80;99.90;;;;;;5008814;28;20033;-67
2022/10/16 04:05:44;;;;;;;4.63;2.15;;;12.70;99.90;;;;;;5009196;28;20078;-67
2022/10/16 04:08:10;;;;;;;4.20;2.05;;;12.70;99.90;;;;;;5009068;28;20074;-67
2022/10/16 04:10:35;;;;;;;6.28;2.47;;;12.80;99.90;;;;;;5008993;28;20045;-67
2022/10/16 04:13:01;;;;;;;5.70;1.75;;;12.70;99.90;;;;;;5008569;28;20042;-67
2022/10/16 04:15:27;;;;;;;4.60;2.03;;;12.70;99.90;;;;;;5008820;28;20044;-67
2022/10/16 04:17:52;;;;;;;5.53;1.75;;;12.60;99.90;;;;;;5008976;28;20039;-67
2022/10/16 04:20:18;;;;;;;5.07;1.80;;;12.60;99.90;;;;;;5008982;28;20031;-67
2022/10/16 04:22:44;;;;;;;6.40;1.83;;;12.70;99.90;;;;;;5007478;28;20026;-67
2022/10/16 04:25:11;;;;;;;6.30;2.15;;;12.70;99.90;;;;;;5008825;28;20496;-67
2022/10/16 04:27:36;;;;;;;3.20;1.85;;;12.60;99.90;;;;;;5008598;28;20042;-67
2022/10/16 04:30:03;;;;;;;3.05;1.60;;;12.70;99.90;;;;;;5008603;28;20523;-67
2022/10/16 04:32:29;;;;;;;4.38;1.85;;;12.70;99.90;;;;;;5008442;28;20038;-67
2022/10/16 04:34:54;;;;;;;2.80;1.92;;;12.60;99.90;;;;;;5008688;28;20041;-67
2022/10/16 04:37:24;;;;;;;7.07;2.47;;;12.70;99.90;;;;;;5008384;28;20042;-67
2022/10/16 04:39:50;;;;;;;4.38;1.70;;;12.70;99.90;;;;;;5008710;28;20038;-67
2022/10/16 04:42:15;;;;;;;4.85;2.17;;;12.60;99.90;;;;;;5008163;28;20100;-67
2022/10/16 04:44:41;;;;;;;2.03;1.60;;;12.70;99.90;;;;;;5006911;28;20121;-67
2022/10/16 04:47:06;;;;;;;3.88;1.92;;;12.60;99.90;;;;;;5008496;28;20042;-67
2022/10/16 04:49:32;;;;;;;5.10;2.08;;;12.80;99.90;;;;;;5000188;28;20054;-67
2022/10/16 04:51:57;;;;;;;3.30;2.08;;;12.60;99.90;;;;;;4994079;28;20042;-67
2022/10/16 04:54:23;;;;;;;2.90;1.58;;;12.70;99.90;;;;;;4994944;28;20121;-67
2022/10/16 04:56:50;;;;;;;4.00;1.90;;;12.80;99.90;;;;;;4994936;28;20507;-67
2022/10/16 04:59:16;;;;;;;3.42;2.22;;;12.70;99.90;;;;;;4995211;28;20050;-67
2022/10/16 05:01:42;;;;;;;5.43;2.25;;;12.80;99.90;;;;;;4994985;28;20100;-67
2022/10/16 05:04:09;;;;;;;4.53;1.75;;;12.90;99.90;;;;;;4994866;28;20099;-67
2022/10/16 05:06:35;;;;;;;6.38;1.95;;;12.70;99.90;;;;;;4994984;28;20045;-67
2022/10/16 05:09:01;;;;;;;6.60;2.30;;;12.70;99.90;;;;;;4993573;28;20046;-67
2022/10/16 05:11:26;;;;;;;7.65;2.65;;;12.90;99.90;;;;;;4994733;28;20048;-67
2022/10/16 05:13:52;;;;;;;2.38;1.88;;;12.90;99.90;;;;;;4994686;28;20408;-67
2022/10/16 05:16:17;;;;;;;4.93;2.25;;;13.00;99.90;;;;;;4994754;28;20142;-67
2022/10/16 05:18:43;;;;;;;5.47;2.30;;;12.70;99.90;;;;;;4994526;28;20472;-67
2022/10/16 05:21:09;;;;;;;6.00;2.13;;;12.70;99.90;;;;;;4994600;28;20471;-67
2022/10/16 05:23:34;;;;;;;4.75;2.20;;;12.90;99.90;;;;;;4994425;28;20118;-67
2022/10/16 05:26:00;;;;;;;3.00;2.10;;;12.90;99.90;;;;;;4994582;28;20126;-67
2022/10/16 05:28:27;;;;;;;4.35;2.33;;;12.90;99.90;;;;;;4994419;28;20085;-67
2022/10/16 05:30:53;;;;;;;3.40;2.47;;;12.90;99.90;;;;;;4994571;28;20039;-67
2022/10/16 05:33:24;;;;;;;6.47;2.17;;;12.90;99.90;;;;;;4994277;28;20037;-67
2022/10/16 05:35:50;;;;;;;7.85;3.20;;;12.90;99.90;;;;;;4993096;28;20047;-67
2022/10/16 05:38:16;;;;;;;6.07;2.50;;;13.00;99.90;;;;;;4992915;28;20046;-67
2022/10/16 05:40:42;;;;;;;3.75;2.22;;;12.70;99.90;;;;;;4992889;28;20046;-67
2022/10/16 05:43:07;;;;;;;3.55;2.20;;;12.90;99.90;;;;;;4994164;28;20104;-67
2022/10/16 05:45:33;;;;;;;5.22;2.20;;;12.80;99.90;;;;;;4994355;28;20034;-67
2022/10/16 05:48:00;;;;;;;7.82;2.55;;;12.90;99.90;;;;;;4993137;28;20046;-67
2022/10/16 05:50:25;;;;;;;8.57;2.40;;;12.90;99.90;;;;;;4994084;28;20105;-68
2022/10/16 05:52:51;;;;;;;9.88;2.78;;;12.80;99.90;;;;;;4993736;28;20073;-67
2022/10/16 05:55:16;;;;;;;7.57;2.45;;;12.70;99.90;;;;;;4993924;28;20085;-67
2022/10/16 05:57:42;;;;;;;3.65;2.38;;;12.70;99.90;;;;;;4994085;28;20050;-67
2022/10/16 06:00:08;;;;;;;4.03;2.47;;;12.90;99.90;;;;;;4993600;28;20034;-67
2022/10/16 06:02:34;;;;;;;6.63;2.58;;;12.80;99.90;;;;;;4993132;28;20065;-67
2022/10/16 06:04:59;;;;;;;5.28;2.70;;;12.80;99.90;;;;;;4993828;28;20412;-67
2022/10/16 06:07:25;;;;;;;3.95;2.58;;;12.80;99.90;;;;;;4993784;28;20109;-67
2022/10/16 06:09:52;;;;;;;3.92;2.33;;;12.80;99.90;;;;;;4993584;28;20065;-67
2022/10/16 06:12:18;;;;;;;4.00;2.45;;;12.80;99.90;;;;;;4993543;28;20612;-67
2022/10/16 06:14:45;;;;;;;8.05;3.30;;;12.70;99.90;;;;;;4993515;28;20637;-67
2022/10/16 06:17:10;;;;;;;4.65;2.63;;;12.80;99.90;;;;;;4993403;28;20515;-67
2022/10/16 06:19:36;;;;;;;5.45;2.63;;;12.90;99.90;;;;;;4993523;28;20049;-67
2022/10/16 06:22:02;;;;;;;9.75;3.17;;;12.90;99.90;;;;;;4993287;28;20038;-67
2022/10/16 06:24:28;;;;;;;6.55;2.70;;;12.80;99.90;;;;;;4993027;28;20057;-67
2022/10/16 06:26:53;;;;;;;5.07;2.80;;;12.90;99.90;;;;;;4993572;28;20039;-67
2022/10/16 06:29:19;;;;;;;5.05;2.67;;;12.80;99.90;;;;;;4993484;28;20069;-67
2022/10/16 06:31:44;;;;;;;7.28;2.97;;;12.80;99.90;;;;;;4993367;28;20034;-67
2022/10/16 06:34:11;;;;;;;5.10;2.78;;;12.80;99.90;;;;;;4993050;28;20045;-67
2022/10/16 06:36:38;;;;;;;7.15;3.80;;;12.80;99.90;;;;;;4993099;28;20042;-67
2022/10/16 06:39:05;;;;;;;7.38;3.05;;;12.90;99.90;;;;;;4992951;28;20047;-67
2022/10/16 06:41:30;;;;;;;7.18;2.92;;;12.80;99.90;;;;;;4993222;28;20041;-67
2022/10/16 06:43:56;;;;;;;5.80;2.95;;;13.10;99.90;;;;;;4993128;28;20464;-67
2022/10/16 06:46:23;;;;;;;6.35;2.88;;;13.10;99.90;;;;;;4993158;28;20038;-67
2022/10/16 06:48:49;;;;;;;6.32;2.83;;;13.10;99.90;;;;;;4992981;28;20053;-67
2022/10/16 06:51:17;;;;;;;7.85;4.03;;;13.10;99.90;;;;;;4992917;28;20042;-67
2022/10/16 06:53:45;;;;;;;7.13;2.78;;;13.10;99.90;;;;;;4992709;28;20554;-67
2022/10/16 06:56:14;;;;;;;5.50;2.13;;;13.10;99.90;;;;;;4993051;28;20046;-67
2022/10/16 06:58:41;;;;;;;4.80;2.28;;;13.10;99.90;;;;;;4992927;28;20046;-67
2022/10/16 07:01:07;;;;;;;4.90;2.17;;;13.30;99.90;;;;;;4992821;28;20046;-67
2022/10/16 07:03:33;;;;;;;6.55;2.60;;;13.30;99.90;;;;;;4992415;28;20508;-67
2022/10/16 07:06:03;;;;;;;8.35;3.40;;;13.30;99.90;;;;;;4992581;28;20121;-69
2022/10/16 07:08:32;;;;;;;5.68;2.20;;;13.20;99.90;;;;;;4992855;28;20150;-67
2022/10/16 07:11:02;;;;;;;4.82;2.72;;;13.40;99.90;;;;;;4982962;28;20054;-67
2022/10/16 07:13:28;;;;;;;6.70;2.33;;;13.30;99.90;;;;;;4982396;28;20042;-67
2022/10/16 07:15:54;;;;;;;5.15;2.85;;;13.30;99.90;;;;;;4973540;28;20038;-66
2022/10/16 07:18:20;;;;;;;7.25;2.50;;;13.40;99.90;;;;;;4973065;28;20592;-67
2022/10/16 07:20:45;;;;;;;3.88;2.00;;;13.30;99.90;;;;;;4972913;28;20042;-67
2022/10/16 07:23:11;;;;;;;4.63;2.67;;;13.50;99.90;;;;;;4972929;28;20041;-67
2022/10/16 07:25:36;;;;;;;5.43;2.88;;;13.60;99.90;;;;;;4972983;28;20040;-66
2022/10/16 07:28:02;;;;;;;7.93;3.25;;;13.40;99.90;;;;;;4973145;28;20045;-67
2022/10/16 07:30:27;;;;;;;7.82;2.95;;;13.70;99.90;;;;;;4971620;28;20050;-67
2022/10/16 07:32:53;;;;;;;5.75;2.35;;;13.80;99.90;;;;;;4972608;28;20046;-67
2022/10/16 07:35:19;;;;;;;5.97;2.60;;;13.80;99.90;;;;;;4971567;28;20038;-67
2022/10/16 07:37:45;;;;;;;3.00;2.33;;;13.80;99.90;;;;;;4972813;28;20401;-67
2022/10/16 07:40:11;;;;;;;8.75;3.03;;;13.60;99.90;;;;;;4972986;28;20039;-67
2022/10/16 07:42:36;;;;;;;5.40;2.75;;;13.50;99.90;;;;;;4972606;28;20039;-67
2022/10/16 07:45:02;;;;;;;4.25;2.60;;;13.50;99.90;;;;;;4977519;28;20400;-67
2022/10/16 07:47:28;;;;;;;4.13;2.28;;;13.50;99.90;;;;;;4982273;28;20035;-67
2022/10/16 07:49:53;;;;;;;3.33;2.30;;;13.50;99.90;;;;;;4980691;28;20035;-67
2022/10/16 07:52:19;;;;;;;4.57;2.40;;;13.60;99.90;;;;;;4982398;28;20038;-67
2022/10/16 07:54:44;;;;;;;5.15;2.53;;;13.60;99.90;;;;;;4972482;28;20046;-67
2022/10/16 07:57:10;;;;;;;5.60;2.58;;;13.60;99.90;;;;;;4974681;28;20089;-66
2022/10/16 07:59:35;;;;;;;7.55;2.90;;;13.50;99.90;;;;;;4986459;28;20060;-66
2022/10/16 08:02:01;;;;;;;5.70;2.05;;;13.60;99.90;;;;;;4994933;28;20061;-66
2022/10/16 08:04:26;;;;;;;6.28;2.65;;;13.70;99.90;;;;;;4982950;28;20400;-67
2022/10/16 08:06:54;;;;;;;3.28;2.00;;;13.80;99.90;;;;;;4981938;28;20042;-67
2022/10/16 08:09:19;;;;;;;4.28;2.47;;;13.90;99.90;;;;;;4988257;28;20042;-66
2022/10/16 08:11:45;;;;;;;8.40;2.75;;;13.90;99.90;;;;;;4992015;28;20488;-67
2022/10/16 08:14:10;;;;;;;6.97;2.60;;;14.30;99.90;;;;;;4993768;28;20034;-66
2022/10/16 08:16:36;;;;;;;10.68;3.92;;;14.50;99.90;;;;;;4979711;28;20423;-65
2022/10/16 08:19:02;;;;;;;2.97;2.00;;;14.70;99.90;;;;;;4991554;28;20121;-65
2022/10/16 08:21:27;;;;;;;5.07;2.33;;;14.90;99.90;;;;;;4991613;28;20043;-65
2022/10/16 08:23:54;;;;;;;7.55;2.33;;;15.10;99.90;;;;;;4992470;28;20041;-66
2022/10/16 08:26:20;;;;;;;4.88;1.92;;;14.90;99.90;;;;;;4993830;28;20053;-67
2022/10/16 08:28:48;;;;;;;5.35;1.95;;;15.10;99.90;;;;;;4995555;28;20415;-65
2022/10/16 08:31:15;;;;;;;6.45;2.05;;;15.00;99.90;;;;;;4995383;28;20038;-67
2022/10/16 08:33:43;;;;;;;8.10;1.85;;;14.90;99.90;;;;;;4994852;28;20042;-66
2022/10/16 08:36:11;;;;;;;5.03;1.98;;;15.00;99.90;;;;;;4995210;28;20531;-67
2022/10/16 08:38:37;;;;;;;5.55;2.20;;;14.90;99.90;;;;;;4994989;28;20065;-67
2022/10/16 08:41:24;;;;;;;6.28;1.75;;;14.80;99.90;;;;;;4995114;28;20058;-66
2022/10/16 08:44:10;;;;;;;5.25;1.70;;;15.10;99.90;;;;;;4994660;28;20086;-67
2022/10/16 08:46:57;;;;;;;5.95;2.17;;;15.20;99.90;;;;;;4994955;28;20046;-66
2022/10/16 08:49:24;;;;;;;3.90;1.58;;;15.20;99.90;;;;;;4995173;28;20069;-68
2022/10/16 08:51:50;;;;;;;4.43;1.50;;;15.20;99.90;;;;;;4995132;28;20538;-67
2022/10/16 08:54:31;;;;;;;4.70;1.77;;;15.10;99.90;;;;;;4995048;28;20426;-67
2022/10/16 08:57:07;;;;;;;3.80;1.30;;;15.10;99.90;;;;;;4994615;28;20496;-67
2022/10/16 08:59:32;;;;;;;6.30;1.90;;;15.10;99.90;;;;;;4994858;28;20117;-66
2022/10/16 09:01:59;;;;;;;4.07;1.65;;;15.20;99.90;;;;;;4994488;28;20117;-66
2022/10/16 09:04:50;;;;;;;4.15;1.10;;;15.20;99.90;;;;;;4994383;28;20036;-66
2022/10/16 09:07:19;;;;;;;4.88;1.50;;;15.00;99.90;;;;;;4980756;28;20524;-67
2022/10/16 09:10:06;;;;;;;5.00;1.65;;;15.10;99.90;;;;;;4994557;28;20447;-67
2022/10/16 09:12:48;;;;;;;3.88;1.30;;;15.20;99.90;;;;;;4994429;28;20050;-67
2022/10/16 09:15:31;;;;;;;6.68;1.70;;;15.10;99.90;;;;;;4994439;28;20046;-67
2022/10/16 09:18:12;;;;;;;2.20;1.30;;;15.30;99.90;;;;;;4994410;28;20092;-66
2022/10/16 09:20:37;;;;;;;12.57;1.95;;;15.40;99.90;;;;;;4994435;28;20073;-66
2022/10/16 09:23:03;;;;;;;2.90;1.75;;;15.30;99.90;;;;;;4993970;28;20062;-66
2022/10/16 09:25:28;;;;;;;5.60;1.90;;;15.20;99.90;;;;;;4994290;28;20043;-66
2022/10/16 09:27:55;;;;;;;4.22;1.60;;;15.30;99.90;;;;;;4994035;28;20113;-66
2022/10/16 09:30:21;;;;;;;6.40;2.15;;;15.50;99.90;;;;;;4994185;28;20046;-66
2022/10/16 09:32:52;;;;;;;7.43;1.60;;;15.50;99.90;;;;;;4993863;28;20038;-67
2022/10/16 09:35:21;;;;;;;5.72;1.60;;;15.50;99.90;;;;;;4994052;28;20404;-67
2022/10/16 09:37:50;;;;;;;6.30;1.77;;;15.50;99.90;;;;;;4993772;28;20060;-67
2022/10/16 09:40:45;;;;;;;6.25;2.35;;;15.40;99.90;;;;;;4993789;28;20035;-66
2022/10/16 09:43:27;;;;;;;4.93;1.90;;;15.50;99.90;;;;;;4980520;28;20042;-66
2022/10/16 09:45:58;;;;;;;8.23;1.70;;;15.60;99.90;;;;;;4993932;28;20042;-67
2022/10/16 09:48:33;;;;;;;7.35;1.80;;;15.40;99.90;;;;;;4993851;28;20100;-66
2022/10/16 09:51:01;;;;;;;5.85;1.85;;;15.60;99.90;;;;;;4993560;28;20362;-66
2022/10/16 09:53:44;;;;;;;11.23;1.55;;;15.50;99.90;;;;;;4993399;28;20444;-67
2022/10/16 09:56:20;;;;;;;6.40;2.50;;;15.60;99.90;;;;;;4993775;28;20459;-66
2022/10/16 09:58:52;;;;;;;8.13;2.40;;;15.60;99.90;;;;;;4993650;28;20038;-66
2022/10/16 10:01:19;;;;;;;6.85;1.50;;;15.50;99.90;;;;;;4993771;28;20157;-67
2022/10/16 10:03:46;;;;;;;10.65;2.28;;;15.60;99.90;;;;;;4993312;28;20122;-67
2022/10/16 10:06:26;;;;;;;8.20;2.00;;;15.60;99.90;;;;;;4987317;28;20050;-67
2022/10/16 10:09:03;;;;;;;5.35;1.75;;;15.60;99.90;;;;;;4988777;28;20053;-67
2022/10/16 10:11:40;;;;;;;8.77;2.00;;;15.70;99.90;;;;;;4993173;28;20117;-67
2022/10/16 10:14:13;;;;;;;8.40;2.53;;;15.50;99.90;;;;;;4993001;28;20065;-67
2022/10/16 10:16:38;;;;;;;12.60;2.33;;;15.60;99.90;;;;;;4988994;28;20524;-67
2022/10/16 10:19:04;;;;;;;8.05;2.25;;;15.50;99.90;;;;;;4974924;28;20082;-66
2022/10/16 10:21:33;;;;;;;8.43;2.00;;;15.50;99.90;;;;;;4973057;28;20046;-67
2022/10/16 10:23:59;;;;;;;8.23;1.83;;;15.60;99.90;;;;;;4972814;28;20042;-67
2022/10/16 10:26:29;;;;;;;10.93;2.30;;;15.60;99.90;;;;;;4973447;28;20161;-66
2022/10/16 10:29:24;;;;;;;11.20;1.90;;;15.60;99.90;;;;;;4976042;28;20042;-66
2022/10/16 10:32:08;;;;;;;11.20;2.00;;;15.70;99.90;;;;;;4973174;28;20456;-66
2022/10/16 10:34:33;;;;;;;;;;;15.60;99.90;;;;;;4987533;28;20561;-65
2022/10/16 10:37:23;;;;;;;12.40;2.17;;;15.70;99.90;;;;;;4973734;28;20016;-66
2022/10/16 10:40:13;;;;;;;10.25;2.22;;;15.80;99.90;;;;;;4980781;28;20496;-66
2022/10/16 10:42:51;;;;;;;9.15;2.10;;;15.70;99.90;;;;;;4992871;28;20042;-66
2022/10/16 10:45:36;;;;;;;10.70;2.30;;;15.90;99.90;;;;;;4993178;28;20043;-66
2022/10/16 10:48:32;;;;;;;10.75;2.17;;;15.80;99.90;;;;;;4992573;28;20105;-66
2022/10/16 10:51:04;;;;;;;14.48;2.00;;;15.80;99.90;;;;;;4992903;28;20125;-66
2022/10/16 10:54:06;;;;;;;19.42;2.50;;;15.90;99.90;;;;;;4992563;28;20412;-66
2022/10/16 10:56:56;;;;;;;9.60;1.90;;;15.90;99.90;;;;;;4993071;28;20035;-66
2022/10/16 11:00:00;;;;;;;7.72;1.98;;;15.80;99.90;;;;;;4992715;28;20046;-66
2022/10/16 11:02:36;;;;;;;10.48;2.38;;;15.90;99.90;;;;;;4992610;28;20073;-66
2022/10/16 11:05:27;;;;;;;14.25;2.55;;;16.00;99.90;;;;;;4991521;28;20052;-66
2022/10/16 11:08:02;;;;;;;8.25;1.90;;;16.00;99.90;;;;;;4992630;28;20050;-66
2022/10/16 11:10:34;;;;;;;6.97;1.73;;;16.10;99.90;;;;;;4992564;28;20496;-68
2022/10/16 11:13:16;;;;;;;12.63;2.45;;;16.10;99.90;;;;;;4992462;28;20046;-67
2022/10/16 11:15:44;;;;;;;8.27;2.53;;;16.00;99.90;;;;;;4992622;28;20412;-66
2022/10/16 11:18:18;;;;;;;7.28;2.20;;;16.00;99.90;;;;;;4992296;28;20053;-66
2022/10/16 11:20:53;;;;;;;12.23;2.33;;;16.10;99.90;;;;;;4992347;28;20489;-67
2022/10/16 11:23:30;;;;;;;12.43;2.75;;;15.80;99.90;;;;;;4992181;28;20500;-67
2022/10/16 11:26:04;;;;;;;9.88;2.00;;;15.70;99.90;;;;;;4992585;28;20038;-68
2022/10/16 11:28:42;;;;;;;10.68;2.47;;;15.60;99.90;;;;;;4992370;28;20042;-67
2022/10/16 11:31:45;;;;;;;11.80;2.35;;;15.50;99.90;;;;;;4991134;28;20455;-66
2022/10/16 11:34:27;;;;;;;14.82;2.38;;;15.50;99.90;;;;;;4991880;28;20504;-66
2022/10/16 11:36:59;;;;;;;13.38;2.08;;;15.40;99.90;;;;;;4992166;28;20390;-67
2022/10/16 11:39:27;;;;;;;12.32;2.80;;;15.30;99.90;;;;;;4992499;28;20096;-66
2022/10/16 11:42:08;;;;;;;8.10;1.60;;;15.30;99.90;;;;;;4992274;28;20077;-67
2022/10/16 11:44:50;;;;;;;8.30;2.22;;;15.40;99.90;;;;;;4990910;28;20049;-67
2022/10/16 11:47:28;;;;;;;12.80;2.28;;;15.40;99.90;;;;;;4992266;28;20101;-67
2022/10/16 11:50:01;;;;;;;8.90;2.15;;;15.70;99.90;;;;;;4992397;28;20088;-68
2022/10/16 11:52:38;;;;;;;12.82;2.08;;;15.70;99.90;;;;;;4992032;28;20133;-66
2022/10/16 11:55:18;;;;;;;10.98;1.80;;;15.70;99.90;;;;;;4992239;28;20042;-66
2022/10/16 11:58:22;;;;;;;12.35;1.80;;;15.80;99.90;;;;;;4992010;28;20042;-66
2022/10/16 12:00:57;;;;;;;11.98;1.85;;;15.80;99.90;;;;;;4993645;28;20408;-66
2022/10/16 12:03:45;;;;;;;8.90;2.10;;;15.90;99.90;;;;;;4994758;28;20460;-67
2022/10/16 12:06:34;;;;;;;15.55;2.60;;;15.90;99.90;;;;;;4996001;28;20074;-66
2022/10/16 12:09:00;;;;;;;13.55;2.05;;;16.00;99.90;;;;;;4995350;28;20057;-66
2022/10/16 12:11:26;;;;;;;5.57;1.63;;;16.10;99.90;;;;;;4992854;28;20035;-67
2022/10/16 12:14:03;;;;;;;14.27;2.63;;;16.10;99.90;;;;;;4985397;28;20492;-66
2022/10/16 12:16:28;;;;;;;8.27;1.52;;;16.10;99.90;;;;;;4985364;28;20034;-67
2022/10/16 12:19:13;;;;;;;10.93;1.92;;;16.20;99.90;;;;;;4960056;28;20117;-66
2022/10/16 12:21:38;;;;;;;9.57;2.10;;;16.20;99.90;;;;;;4976442;28;20404;-67
2022/10/16 12:24:05;;;;;;;11.05;2.20;;;16.30;99.90;;;;;;4978530;28;20117;-66
2022/10/16 12:26:38;;;;;;;6.40;1.80;;;16.30;99.90;;;;;;4976160;28;20038;-67
2022/10/16 12:29:16;;;;;;;6.68;1.67;;;16.30;99.90;;;;;;4976190;28;20042;-67
2022/10/16 12:31:47;;;;;;;8.30;2.40;;;16.30;99.90;;;;;;4975986;28;20568;-66
2022/10/16 12:34:43;;;;;;;6.70;1.50;;;16.30;99.90;;;;;;4975912;28;20065;-66
2022/10/16 12:37:20;;;;;;;13.38;2.42;;;16.30;99.90;;;;;;4975933;28;20558;-66
2022/10/16 12:39:48;;;;;;;12.10;2.20;;;16.40;99.90;;;;;;4976172;28;20039;-66
2022/10/16 12:42:26;;;;;;;13.60;2.40;;;16.30;99.90;;;;;;4975798;28;20081;-66
2022/10/16 12:44:53;;;;;;;9.40;2.10;;;16.30;99.90;;;;;;4976017;28;20441;-67
2022/10/16 12:47:31;;;;;;;8.20;1.75;;;16.30;99.90;;;;;;4975799;28;20118;-67
2022/10/16 12:49:58;;;;;;;12.57;2.75;;;16.30;99.90;;;;;;4975711;28;20077;-67
2022/10/16 12:52:37;;;;;;;8.80;2.63;;;16.30;99.90;;;;;;4975590;28;20054;-67
2022/10/16 12:55:04;;;;;;;11.18;2.40;;;16.40;99.90;;;;;;4975735;28;20069;-67
2022/10/16 12:58:00;;;;;;;11.95;2.67;;;16.40;99.90;;;;;;4974217;28;20054;-66
2022/10/16 13:00:56;;;;;;;8.52;2.47;;;16.50;99.90;;;;;;4975419;28;20053;-67
2022/10/16 13:03:52;;;;;;;10.38;2.53;;;16.50;99.90;;;;;;4975195;28;20393;-67
2022/10/16 13:06:34;;;;;;;14.90;2.08;;;16.50;99.90;;;;;;4975477;28;20177;-67